sensor_id;sensor_type;location;lat;lon;timestamp;temperature;humidity
74101;DHT22;62462;52.530;21.682;2023-06-19T00:00:14;17.90;74.00
74101;DHT22;62462;52.530;21.682;2023-06-19T00:02:42;17.90;73.70
74101;DHT22;62462;52.530;21.682;2023-06-19T00:05:08;17.90;73.50
74101;DHT22;62462;52.530;21.682;2023-06-19T00:07:36;17.90;73.50
74101;DHT22;62462;52.530;21.682;2023-06-19T00:10:03;18.00;73.80
74101;DHT22;62462;52.530;21.682;2023-06-19T00:12:29;17.90;74.00
74101;DHT22;62462;52.530;21.682;2023-06-19T00:14:54;17.80;74.50
74101;DHT22;62462;52.530;21.682;2023-06-19T00:17:20;17.80;74.40
74101;DHT22;62462;52.530;21.682;2023-06-19T00:19:46;17.90;74.50
74101;DHT22;62462;52.530;21.682;2023-06-19T00:22:14;17.80;74.60
74101;DHT22;62462;52.530;21.682;2023-06-19T00:24:40;17.70;75.00
74101;DHT22;62462;52.530;21.682;2023-06-19T00:27:06;17.80;74.60
74101;DHT22;62462;52.530;21.682;2023-06-19T00:29:32;17.80;74.40
74101;DHT22;62462;52.530;21.682;2023-06-19T00:31:59;17.70;74.00
74101;DHT22;62462;52.530;21.682;2023-06-19T00:34:25;17.70;74.50
74101;DHT22;62462;52.530;21.682;2023-06-19T00:36:51;17.60;74.60
74101;DHT22;62462;52.530;21.682;2023-06-19T00:39:20;17.60;74.30
74101;DHT22;62462;52.530;21.682;2023-06-19T00:41:45;17.70;74.20
74101;DHT22;62462;52.530;21.682;2023-06-19T00:44:13;17.70;74.20
74101;DHT22;62462;52.530;21.682;2023-06-19T00:46:40;17.70;74.40
74101;DHT22;62462;52.530;21.682;2023-06-19T00:49:07;17.70;74.50
74101;DHT22;62462;52.530;21.682;2023-06-19T00:51:33;17.70;74.30
74101;DHT22;62462;52.530;21.682;2023-06-19T00:53:59;17.70;74.10
74101;DHT22;62462;52.530;21.682;2023-06-19T00:56:26;17.70;74.00
74101;DHT22;62462;52.530;21.682;2023-06-19T00:58:55;17.70;73.90
74101;DHT22;62462;52.530;21.682;2023-06-19T01:01:21;17.60;74.10
74101;DHT22;62462;52.530;21.682;2023-06-19T01:03:49;17.50;74.20
74101;DHT22;62462;52.530;21.682;2023-06-19T01:06:22;17.50;74.70
74101;DHT22;62462;52.530;21.682;2023-06-19T01:09:15;17.50;75.00
74101;DHT22;62462;52.530;21.682;2023-06-19T01:11:50;17.50;74.70
74101;DHT22;62462;52.530;21.682;2023-06-19T01:14:28;17.60;74.50
74101;DHT22;62462;52.530;21.682;2023-06-19T01:16:55;17.60;74.60
74101;DHT22;62462;52.530;21.682;2023-06-19T01:19:21;17.50;74.80
74101;DHT22;62462;52.530;21.682;2023-06-19T01:21:48;17.60;74.90
74101;DHT22;62462;52.530;21.682;2023-06-19T01:24:15;17.60;74.80
74101;DHT22;62462;52.530;21.682;2023-06-19T01:26:41;17.60;74.70
74101;DHT22;62462;52.530;21.682;2023-06-19T01:29:08;17.60;74.90
74101;DHT22;62462;52.530;21.682;2023-06-19T01:31:38;17.60;74.70
74101;DHT22;62462;52.530;21.682;2023-06-19T01:34:07;17.60;74.60
74101;DHT22;62462;52.530;21.682;2023-06-19T01:36:35;17.60;74.50
74101;DHT22;62462;52.530;21.682;2023-06-19T01:39:02;17.40;74.70
74101;DHT22;62462;52.530;21.682;2023-06-19T01:41:30;17.30;75.50
74101;DHT22;62462;52.530;21.682;2023-06-19T01:43:56;17.30;75.70
74101;DHT22;62462;52.530;21.682;2023-06-19T01:46:22;17.40;75.20
74101;DHT22;62462;52.530;21.682;2023-06-19T01:48:48;17.40;74.70
74101;DHT22;62462;52.530;21.682;2023-06-19T01:51:14;17.40;74.50
74101;DHT22;62462;52.530;21.682;2023-06-19T01:53:40;17.30;74.00
74101;DHT22;62462;52.530;21.682;2023-06-19T01:56:06;17.40;75.00
74101;DHT22;62462;52.530;21.682;2023-06-19T01:58:32;17.40;73.90
74101;DHT22;62462;52.530;21.682;2023-06-19T02:00:58;17.20;74.10
74101;DHT22;62462;52.530;21.682;2023-06-19T02:03:24;17.20;74.50
74101;DHT22;62462;52.530;21.682;2023-06-19T02:05:50;17.20;74.30
74101;DHT22;62462;52.530;21.682;2023-06-19T02:08:16;17.20;73.80
74101;DHT22;62462;52.530;21.682;2023-06-19T02:10:42;17.30;73.70
74101;DHT22;62462;52.530;21.682;2023-06-19T02:13:07;17.30;73.80
74101;DHT22;62462;52.530;21.682;2023-06-19T02:15:33;17.30;74.00
74101;DHT22;62462;52.530;21.682;2023-06-19T02:18:00;17.20;74.20
74101;DHT22;62462;52.530;21.682;2023-06-19T02:20:25;17.00;74.70
74101;DHT22;62462;52.530;21.682;2023-06-19T02:22:51;17.10;76.00
74101;DHT22;62462;52.530;21.682;2023-06-19T02:25:17;17.10;74.80
74101;DHT22;62462;52.530;21.682;2023-06-19T02:27:43;17.20;74.50
74101;DHT22;62462;52.530;21.682;2023-06-19T02:30:09;17.30;74.00
74101;DHT22;62462;52.530;21.682;2023-06-19T02:32:35;17.30;74.00
74101;DHT22;62462;52.530;21.682;2023-06-19T02:35:01;17.30;74.00
74101;DHT22;62462;52.530;21.682;2023-06-19T02:37:26;17.20;74.30
74101;DHT22;62462;52.530;21.682;2023-06-19T02:39:52;17.30;74.60
74101;DHT22;62462;52.530;21.682;2023-06-19T02:42:18;17.30;74.80
74101;DHT22;62462;52.530;21.682;2023-06-19T02:44:43;17.30;75.00
74101;DHT22;62462;52.530;21.682;2023-06-19T02:47:11;17.30;75.30
74101;DHT22;62462;52.530;21.682;2023-06-19T02:49:36;17.30;75.30
74101;DHT22;62462;52.530;21.682;2023-06-19T02:52:02;17.40;75.40
74101;DHT22;62462;52.530;21.682;2023-06-19T02:54:28;17.40;75.20
74101;DHT22;62462;52.530;21.682;2023-06-19T02:56:53;17.40;75.30
74101;DHT22;62462;52.530;21.682;2023-06-19T02:59:19;17.50;75.30
74101;DHT22;62462;52.530;21.682;2023-06-19T03:01:45;17.50;75.30
74101;DHT22;62462;52.530;21.682;2023-06-19T03:04:11;17.50;75.30
74101;DHT22;62462;52.530;21.682;2023-06-19T03:06:38;17.50;75.10
74101;DHT22;62462;52.530;21.682;2023-06-19T03:09:08;17.50;75.10
74101;DHT22;62462;52.530;21.682;2023-06-19T03:11:41;17.50;75.40
74101;DHT22;62462;52.530;21.682;2023-06-19T03:14:07;17.40;76.00
74101;DHT22;62462;52.530;21.682;2023-06-19T03:16:34;17.30;76.40
74101;DHT22;62462;52.530;21.682;2023-06-19T03:19:00;17.40;76.70
74101;DHT22;62462;52.530;21.682;2023-06-19T03:21:26;17.30;76.50
74101;DHT22;62462;52.530;21.682;2023-06-19T03:23:52;17.40;76.30
74101;DHT22;62462;52.530;21.682;2023-06-19T03:26:21;17.30;76.50
74101;DHT22;62462;52.530;21.682;2023-06-19T03:28:47;17.30;76.50
74101;DHT22;62462;52.530;21.682;2023-06-19T03:31:14;17.40;76.50
74101;DHT22;62462;52.530;21.682;2023-06-19T03:33:42;17.40;76.40
74101;DHT22;62462;52.530;21.682;2023-06-19T03:36:08;17.40;76.40
74101;DHT22;62462;52.530;21.682;2023-06-19T03:38:35;17.40;76.00
74101;DHT22;62462;52.530;21.682;2023-06-19T03:41:01;17.50;75.90
74101;DHT22;62462;52.530;21.682;2023-06-19T03:43:28;17.50;75.80
74101;DHT22;62462;52.530;21.682;2023-06-19T03:45:53;17.60;75.70
74101;DHT22;62462;52.530;21.682;2023-06-19T03:48:20;17.60;75.70
74101;DHT22;62462;52.530;21.682;2023-06-19T03:50:46;17.70;75.80
74101;DHT22;62462;52.530;21.682;2023-06-19T03:53:11;17.70;75.50
74101;DHT22;62462;52.530;21.682;2023-06-19T03:55:37;17.70;75.50
74101;DHT22;62462;52.530;21.682;2023-06-19T03:58:03;17.70;75.50
74101;DHT22;62462;52.530;21.682;2023-06-19T04:00:29;17.70;75.50
74101;DHT22;62462;52.530;21.682;2023-06-19T04:02:55;17.80;75.70
74101;DHT22;62462;52.530;21.682;2023-06-19T04:05:22;17.80;75.90
74101;DHT22;62462;52.530;21.682;2023-06-19T04:07:48;17.80;76.20
74101;DHT22;62462;52.530;21.682;2023-06-19T04:10:14;17.70;77.30
74101;DHT22;62462;52.530;21.682;2023-06-19T04:12:40;17.50;78.00
74101;DHT22;62462;52.530;21.682;2023-06-19T04:15:07;17.40;78.40
74101;DHT22;62462;52.530;21.682;2023-06-19T04:17:33;17.50;78.90
74101;DHT22;62462;52.530;21.682;2023-06-19T04:19:59;17.50;78.70
74101;DHT22;62462;52.530;21.682;2023-06-19T04:22:24;17.50;79.10
74101;DHT22;62462;52.530;21.682;2023-06-19T04:24:50;17.50;79.50
74101;DHT22;62462;52.530;21.682;2023-06-19T04:27:16;17.50;79.50
74101;DHT22;62462;52.530;21.682;2023-06-19T04:29:42;17.40;80.30
74101;DHT22;62462;52.530;21.682;2023-06-19T04:32:07;17.40;80.10
74101;DHT22;62462;52.530;21.682;2023-06-19T04:34:41;17.50;79.90
74101;DHT22;62462;52.530;21.682;2023-06-19T04:37:11;17.70;79.50
74101;DHT22;62462;52.530;21.682;2023-06-19T04:39:37;17.80;78.90
74101;DHT22;62462;52.530;21.682;2023-06-19T04:42:03;17.80;78.90
74101;DHT22;62462;52.530;21.682;2023-06-19T04:44:29;17.80;79.00
74101;DHT22;62462;52.530;21.682;2023-06-19T04:47:00;17.80;78.90
74101;DHT22;62462;52.530;21.682;2023-06-19T04:49:29;17.90;79.00
74101;DHT22;62462;52.530;21.682;2023-06-19T04:51:58;18.00;78.80
74101;DHT22;62462;52.530;21.682;2023-06-19T04:54:24;18.10;78.50
74101;DHT22;62462;52.530;21.682;2023-06-19T04:56:50;18.20;78.10
74101;DHT22;62462;52.530;21.682;2023-06-19T04:59:16;18.20;77.90
74101;DHT22;62462;52.530;21.682;2023-06-19T05:01:44;18.30;77.80
74101;DHT22;62462;52.530;21.682;2023-06-19T05:04:15;18.30;77.80
74101;DHT22;62462;52.530;21.682;2023-06-19T05:06:41;18.30;77.90
74101;DHT22;62462;52.530;21.682;2023-06-19T05:09:08;18.20;78.10
74101;DHT22;62462;52.530;21.682;2023-06-19T05:11:33;18.30;78.10
74101;DHT22;62462;52.530;21.682;2023-06-19T05:13:59;18.40;78.40
74101;DHT22;62462;52.530;21.682;2023-06-19T05:16:25;18.50;78.20
74101;DHT22;62462;52.530;21.682;2023-06-19T05:18:51;18.60;77.90
74101;DHT22;62462;52.530;21.682;2023-06-19T05:21:17;18.70;77.80
74101;DHT22;62462;52.530;21.682;2023-06-19T05:23:42;18.80;77.80
74101;DHT22;62462;52.530;21.682;2023-06-19T05:26:08;18.80;77.60
74101;DHT22;62462;52.530;21.682;2023-06-19T05:28:34;18.90;77.50
74101;DHT22;62462;52.530;21.682;2023-06-19T05:31:00;19.00;77.50
74101;DHT22;62462;52.530;21.682;2023-06-19T05:33:25;19.10;77.40
74101;DHT22;62462;52.530;21.682;2023-06-19T05:35:52;19.10;77.60
74101;DHT22;62462;52.530;21.682;2023-06-19T05:38:20;19.00;77.60
74101;DHT22;62462;52.530;21.682;2023-06-19T05:40:46;19.00;77.80
74101;DHT22;62462;52.530;21.682;2023-06-19T05:43:12;19.10;78.60
74101;DHT22;62462;52.530;21.682;2023-06-19T05:45:38;19.30;78.20
74101;DHT22;62462;52.530;21.682;2023-06-19T05:48:04;19.40;77.90
74101;DHT22;62462;52.530;21.682;2023-06-19T05:50:30;19.50;77.40
74101;DHT22;62462;52.530;21.682;2023-06-19T05:52:56;19.50;77.50
74101;DHT22;62462;52.530;21.682;2023-06-19T05:55:22;19.40;77.60
74101;DHT22;62462;52.530;21.682;2023-06-19T05:57:50;19.40;77.80
74101;DHT22;62462;52.530;21.682;2023-06-19T06:00:16;19.30;78.00
74101;DHT22;62462;52.530;21.682;2023-06-19T06:02:42;19.30;78.30
74101;DHT22;62462;52.530;21.682;2023-06-19T06:05:08;19.30;78.40
74101;DHT22;62462;52.530;21.682;2023-06-19T06:07:34;19.30;78.50
74101;DHT22;62462;52.530;21.682;2023-06-19T06:10:00;19.30;78.40
74101;DHT22;62462;52.530;21.682;2023-06-19T06:12:26;19.40;78.10
74101;DHT22;62462;52.530;21.682;2023-06-19T06:14:53;19.30;77.80
74101;DHT22;62462;52.530;21.682;2023-06-19T06:17:18;19.30;78.00
74101;DHT22;62462;52.530;21.682;2023-06-19T06:19:44;19.40;78.30
74101;DHT22;62462;52.530;21.682;2023-06-19T06:22:10;19.50;78.10
74101;DHT22;62462;52.530;21.682;2023-06-19T06:24:35;19.70;77.60
74101;DHT22;62462;52.530;21.682;2023-06-19T06:27:01;19.90;77.30
74101;DHT22;62462;52.530;21.682;2023-06-19T06:29:27;20.10;76.90
74101;DHT22;62462;52.530;21.682;2023-06-19T06:32:05;20.20;76.20
74101;DHT22;62462;52.530;21.682;2023-06-19T06:34:32;20.40;75.80
74101;DHT22;62462;52.530;21.682;2023-06-19T06:36:59;20.50;75.90
74101;DHT22;62462;52.530;21.682;2023-06-19T06:39:25;20.50;75.60
74101;DHT22;62462;52.530;21.682;2023-06-19T06:41:51;20.60;75.40
74101;DHT22;62462;52.530;21.682;2023-06-19T06:44:17;20.70;75.30
74101;DHT22;62462;52.530;21.682;2023-06-19T06:46:43;20.80;74.70
74101;DHT22;62462;52.530;21.682;2023-06-19T06:49:08;20.80;73.90
74101;DHT22;62462;52.530;21.682;2023-06-19T06:51:34;20.80;74.10
74101;DHT22;62462;52.530;21.682;2023-06-19T06:54:00;20.70;73.80
74101;DHT22;62462;52.530;21.682;2023-06-19T06:56:25;20.80;74.40
74101;DHT22;62462;52.530;21.682;2023-06-19T06:58:51;20.90;73.70
74101;DHT22;62462;52.530;21.682;2023-06-19T07:01:17;21.10;73.40
74101;DHT22;62462;52.530;21.682;2023-06-19T07:03:43;21.20;72.50
74101;DHT22;62462;52.530;21.682;2023-06-19T07:06:09;21.20;72.20
74101;DHT22;62462;52.530;21.682;2023-06-19T07:08:34;21.30;72.00
74101;DHT22;62462;52.530;21.682;2023-06-19T07:11:01;21.40;71.80
74101;DHT22;62462;52.530;21.682;2023-06-19T07:13:27;21.50;72.00
74101;DHT22;62462;52.530;21.682;2023-06-19T07:15:53;21.60;72.40
74101;DHT22;62462;52.530;21.682;2023-06-19T07:18:18;21.70;71.90
74101;DHT22;62462;52.530;21.682;2023-06-19T07:20:44;21.80;71.80
74101;DHT22;62462;52.530;21.682;2023-06-19T07:23:10;21.80;69.90
74101;DHT22;62462;52.530;21.682;2023-06-19T07:25:36;21.80;70.00
74101;DHT22;62462;52.530;21.682;2023-06-19T07:28:02;21.70;70.60
74101;DHT22;62462;52.530;21.682;2023-06-19T07:30:30;21.80;71.40
74101;DHT22;62462;52.530;21.682;2023-06-19T07:32:56;21.90;70.70
74101;DHT22;62462;52.530;21.682;2023-06-19T07:35:22;21.90;69.90
74101;DHT22;62462;52.530;21.682;2023-06-19T07:37:48;22.00;70.90
74101;DHT22;62462;52.530;21.682;2023-06-19T07:40:14;22.10;69.30
74101;DHT22;62462;52.530;21.682;2023-06-19T07:42:40;22.10;69.80
74101;DHT22;62462;52.530;21.682;2023-06-19T07:45:07;22.30;70.00
74101;DHT22;62462;52.530;21.682;2023-06-19T07:47:33;22.40;67.40
74101;DHT22;62462;52.530;21.682;2023-06-19T07:49:58;22.50;67.30
74101;DHT22;62462;52.530;21.682;2023-06-19T07:52:24;22.40;66.60
74101;DHT22;62462;52.530;21.682;2023-06-19T07:54:57;22.50;66.60
74101;DHT22;62462;52.530;21.682;2023-06-19T07:57:25;22.70;67.40
74101;DHT22;62462;52.530;21.682;2023-06-19T07:59:52;22.80;66.40
74101;DHT22;62462;52.530;21.682;2023-06-19T08:02:18;23.00;66.40
74101;DHT22;62462;52.530;21.682;2023-06-19T08:04:45;23.20;67.50
74101;DHT22;62462;52.530;21.682;2023-06-19T08:07:11;23.40;66.90
74101;DHT22;62462;52.530;21.682;2023-06-19T08:09:37;23.60;64.50
74101;DHT22;62462;52.530;21.682;2023-06-19T08:12:03;23.60;63.70
74101;DHT22;62462;52.530;21.682;2023-06-19T08:14:29;23.70;63.30
74101;DHT22;62462;52.530;21.682;2023-06-19T08:16:55;23.70;63.40
74101;DHT22;62462;52.530;21.682;2023-06-19T08:19:21;23.70;59.30
74101;DHT22;62462;52.530;21.682;2023-06-19T08:21:47;23.70;59.50
74101;DHT22;62462;52.530;21.682;2023-06-19T08:24:12;23.80;59.10
74101;DHT22;62462;52.530;21.682;2023-06-19T08:26:38;23.70;57.50
74101;DHT22;62462;52.530;21.682;2023-06-19T08:29:04;23.80;59.70
74101;DHT22;62462;52.530;21.682;2023-06-19T08:31:30;24.00;60.10
74101;DHT22;62462;52.530;21.682;2023-06-19T08:33:56;24.10;58.20
74101;DHT22;62462;52.530;21.682;2023-06-19T08:36:23;24.10;57.00
74101;DHT22;62462;52.530;21.682;2023-06-19T08:38:49;24.30;59.00
74101;DHT22;62462;52.530;21.682;2023-06-19T08:41:19;24.40;58.40
74101;DHT22;62462;52.530;21.682;2023-06-19T08:43:46;24.50;58.40
74101;DHT22;62462;52.530;21.682;2023-06-19T08:46:16;24.60;56.20
74101;DHT22;62462;52.530;21.682;2023-06-19T08:48:44;24.50;56.20
74101;DHT22;62462;52.530;21.682;2023-06-19T08:51:11;24.40;57.70
74101;DHT22;62462;52.530;21.682;2023-06-19T08:53:48;24.30;56.60
74101;DHT22;62462;52.530;21.682;2023-06-19T08:56:34;24.30;55.00
74101;DHT22;62462;52.530;21.682;2023-06-19T08:59:18;24.40;56.20
74101;DHT22;62462;52.530;21.682;2023-06-19T09:01:48;24.60;55.50
74101;DHT22;62462;52.530;21.682;2023-06-19T09:04:23;24.80;54.50
74101;DHT22;62462;52.530;21.682;2023-06-19T09:06:52;25.00;55.00
74101;DHT22;62462;52.530;21.682;2023-06-19T09:09:23;25.30;56.50
74101;DHT22;62462;52.530;21.682;2023-06-19T09:14:39;25.60;55.10
74101;DHT22;62462;52.530;21.682;2023-06-19T09:17:12;25.80;53.60
74101;DHT22;62462;52.530;21.682;2023-06-19T09:19:38;25.80;52.00
74101;DHT22;62462;52.530;21.682;2023-06-19T09:22:12;25.90;51.90
74101;DHT22;62462;52.530;21.682;2023-06-19T09:24:40;25.90;52.00
74101;DHT22;62462;52.530;21.682;2023-06-19T09:27:11;25.90;50.00
74101;DHT22;62462;52.530;21.682;2023-06-19T09:29:40;25.80;51.00
74101;DHT22;62462;52.530;21.682;2023-06-19T09:32:23;25.90;48.40
74101;DHT22;62462;52.530;21.682;2023-06-19T09:34:51;25.90;50.40
74101;DHT22;62462;52.530;21.682;2023-06-19T09:37:25;26.00;50.30
74101;DHT22;62462;52.530;21.682;2023-06-19T09:40:00;26.20;51.30
74101;DHT22;62462;52.530;21.682;2023-06-19T09:42:32;26.30;50.00
74101;DHT22;62462;52.530;21.682;2023-06-19T09:45:03;26.20;48.10
74101;DHT22;62462;52.530;21.682;2023-06-19T09:47:38;26.30;49.70
74101;DHT22;62462;52.530;21.682;2023-06-19T09:50:06;26.40;50.70
74101;DHT22;62462;52.530;21.682;2023-06-19T09:52:32;26.40;50.20
74101;DHT22;62462;52.530;21.682;2023-06-19T09:55:04;26.50;51.00
74101;DHT22;62462;52.530;21.682;2023-06-19T09:57:34;26.70;50.90
74101;DHT22;62462;52.530;21.682;2023-06-19T10:00:01;26.90;50.10
74101;DHT22;62462;52.530;21.682;2023-06-19T10:02:36;27.00;45.40
74101;DHT22;62462;52.530;21.682;2023-06-19T10:05:02;26.90;43.60
74101;DHT22;62462;52.530;21.682;2023-06-19T10:07:34;26.90;45.90
74101;DHT22;62462;52.530;21.682;2023-06-19T10:10:23;26.90;45.50
74101;DHT22;62462;52.530;21.682;2023-06-19T10:12:49;26.90;44.50
74101;DHT22;62462;52.530;21.682;2023-06-19T10:15:19;27.00;45.70
74101;DHT22;62462;52.530;21.682;2023-06-19T10:23:11;27.10;43.60
74101;DHT22;62462;52.530;21.682;2023-06-19T10:25:40;27.10;45.50
74101;DHT22;62462;52.530;21.682;2023-06-19T10:28:23;27.20;44.00
74101;DHT22;62462;52.530;21.682;2023-06-19T10:31:04;27.30;44.20
74101;DHT22;62462;52.530;21.682;2023-06-19T10:33:34;27.30;41.60
74101;DHT22;62462;52.530;21.682;2023-06-19T10:36:01;27.30;42.70
74101;DHT22;62462;52.530;21.682;2023-06-19T10:38:38;27.30;43.70
74101;DHT22;62462;52.530;21.682;2023-06-19T10:41:04;27.40;42.70
74101;DHT22;62462;52.530;21.682;2023-06-19T10:43:30;27.50;41.90
74101;DHT22;62462;52.530;21.682;2023-06-19T10:45:58;27.50;42.30
74101;DHT22;62462;52.530;21.682;2023-06-19T10:48:25;27.50;42.10
74101;DHT22;62462;52.530;21.682;2023-06-19T10:50:51;27.60;41.70
74101;DHT22;62462;52.530;21.682;2023-06-19T10:53:31;27.70;41.90
74101;DHT22;62462;52.530;21.682;2023-06-19T10:55:59;27.80;41.30
74101;DHT22;62462;52.530;21.682;2023-06-19T10:58:27;28.10;43.30
74101;DHT22;62462;52.530;21.682;2023-06-19T11:00:53;28.30;44.40
74101;DHT22;62462;52.530;21.682;2023-06-19T11:03:21;28.50;43.60
74101;DHT22;62462;52.530;21.682;2023-06-19T11:05:48;28.60;40.70
74101;DHT22;62462;52.530;21.682;2023-06-19T11:08:21;28.50;41.90
74101;DHT22;62462;52.530;21.682;2023-06-19T11:10:48;28.40;40.40
74101;DHT22;62462;52.530;21.682;2023-06-19T11:13:15;28.30;41.60
74101;DHT22;62462;52.530;21.682;2023-06-19T11:15:42;28.20;40.60
74101;DHT22;62462;52.530;21.682;2023-06-19T11:18:08;27.80;40.10
74101;DHT22;62462;52.530;21.682;2023-06-19T11:20:48;27.70;42.30
74101;DHT22;62462;52.530;21.682;2023-06-19T11:23:16;27.90;42.10
74101;DHT22;62462;52.530;21.682;2023-06-19T11:25:42;28.00;40.70
74101;DHT22;62462;52.530;21.682;2023-06-19T11:28:15;28.00;40.20
74101;DHT22;62462;52.530;21.682;2023-06-19T11:30:48;28.10;41.00
74101;DHT22;62462;52.530;21.682;2023-06-19T11:33:19;28.10;40.00
74101;DHT22;62462;52.530;21.682;2023-06-19T11:35:49;28.10;39.00
74101;DHT22;62462;52.530;21.682;2023-06-19T11:38:19;28.20;40.70
74101;DHT22;62462;52.530;21.682;2023-06-19T11:40:46;28.40;41.80
74101;DHT22;62462;52.530;21.682;2023-06-19T11:43:12;28.60;40.10
74101;DHT22;62462;52.530;21.682;2023-06-19T11:45:48;28.70;41.00
74101;DHT22;62462;52.530;21.682;2023-06-19T11:48:24;28.80;39.00
74101;DHT22;62462;52.530;21.682;2023-06-19T11:50:51;28.70;39.90
74101;DHT22;62462;52.530;21.682;2023-06-19T11:53:18;28.80;39.20
74101;DHT22;62462;52.530;21.682;2023-06-19T11:55:43;28.80;38.00
74101;DHT22;62462;52.530;21.682;2023-06-19T11:58:10;28.90;37.70
74101;DHT22;62462;52.530;21.682;2023-06-19T12:00:38;29.00;37.90
74101;DHT22;62462;52.530;21.682;2023-06-19T12:03:04;29.00;38.30
74101;DHT22;62462;52.530;21.682;2023-06-19T12:05:30;29.10;39.00
74101;DHT22;62462;52.530;21.682;2023-06-19T12:07:56;28.80;36.70
74101;DHT22;62462;52.530;21.682;2023-06-19T12:10:22;28.50;38.60
74101;DHT22;62462;52.530;21.682;2023-06-19T12:12:48;28.20;40.10
74101;DHT22;62462;52.530;21.682;2023-06-19T12:15:14;28.30;41.20
74101;DHT22;62462;52.530;21.682;2023-06-19T12:17:41;28.60;39.70
74101;DHT22;62462;52.530;21.682;2023-06-19T12:20:07;28.80;40.20
74101;DHT22;62462;52.530;21.682;2023-06-19T12:22:34;29.00;39.70
74101;DHT22;62462;52.530;21.682;2023-06-19T12:25:01;29.20;40.00
74101;DHT22;62462;52.530;21.682;2023-06-19T12:27:27;29.50;40.60
74101;DHT22;62462;52.530;21.682;2023-06-19T12:29:53;29.70;39.70
74101;DHT22;62462;52.530;21.682;2023-06-19T12:32:18;29.80;39.80
74101;DHT22;62462;52.530;21.682;2023-06-19T12:34:46;29.90;37.70
74101;DHT22;62462;52.530;21.682;2023-06-19T12:37:16;30.00;40.50
74101;DHT22;62462;52.530;21.682;2023-06-19T12:39:44;30.00;40.30
74101;DHT22;62462;52.530;21.682;2023-06-19T12:42:10;29.80;36.10
74101;DHT22;62462;52.530;21.682;2023-06-19T12:44:39;29.60;38.80
74101;DHT22;62462;52.530;21.682;2023-06-19T12:47:08;29.80;40.50
74101;DHT22;62462;52.530;21.682;2023-06-19T12:49:34;30.00;40.40
74101;DHT22;62462;52.530;21.682;2023-06-19T12:52:00;30.30;39.20
74101;DHT22;62462;52.530;21.682;2023-06-19T12:54:26;30.40;39.60
74101;DHT22;62462;52.530;21.682;2023-06-19T12:56:54;30.60;38.30
74101;DHT22;62462;52.530;21.682;2023-06-19T12:59:20;30.70;38.70
74101;DHT22;62462;52.530;21.682;2023-06-19T13:01:46;30.70;38.40
74101;DHT22;62462;52.530;21.682;2023-06-19T13:04:12;30.70;38.30
74101;DHT22;62462;52.530;21.682;2023-06-19T13:06:39;30.90;38.80
74101;DHT22;62462;52.530;21.682;2023-06-19T13:09:05;30.80;36.40
74101;DHT22;62462;52.530;21.682;2023-06-19T13:11:32;30.40;35.70
74101;DHT22;62462;52.530;21.682;2023-06-19T13:14:02;30.20;37.60
74101;DHT22;62462;52.530;21.682;2023-06-19T13:16:30;30.10;35.10
74101;DHT22;62462;52.530;21.682;2023-06-19T13:18:57;30.10;37.00
74101;DHT22;62462;52.530;21.682;2023-06-19T13:21:22;30.20;37.80
74101;DHT22;62462;52.530;21.682;2023-06-19T13:23:48;30.40;37.70
74101;DHT22;62462;52.530;21.682;2023-06-19T13:26:15;30.40;37.00
74101;DHT22;62462;52.530;21.682;2023-06-19T13:28:41;30.60;37.20
74101;DHT22;62462;52.530;21.682;2023-06-19T13:31:07;30.80;37.50
74101;DHT22;62462;52.530;21.682;2023-06-19T13:33:32;30.90;35.30
74101;DHT22;62462;52.530;21.682;2023-06-19T13:35:58;30.80;35.20
74101;DHT22;62462;52.530;21.682;2023-06-19T13:38:24;30.90;34.80
74101;DHT22;62462;52.530;21.682;2023-06-19T13:40:52;30.90;34.80
74101;DHT22;62462;52.530;21.682;2023-06-19T13:43:18;31.00;35.10
74101;DHT22;62462;52.530;21.682;2023-06-19T13:45:45;31.10;33.10
74101;DHT22;62462;52.530;21.682;2023-06-19T13:48:11;31.00;32.40
74101;DHT22;62462;52.530;21.682;2023-06-19T13:50:37;30.90;33.50
74101;DHT22;62462;52.530;21.682;2023-06-19T13:53:03;30.70;33.00
74101;DHT22;62462;52.530;21.682;2023-06-19T13:55:29;30.70;34.50
74101;DHT22;62462;52.530;21.682;2023-06-19T13:57:54;30.60;35.50
74101;DHT22;62462;52.530;21.682;2023-06-19T14:00:21;30.70;35.20
74101;DHT22;62462;52.530;21.682;2023-06-19T14:02:47;30.80;35.10
74101;DHT22;62462;52.530;21.682;2023-06-19T14:05:13;30.60;35.20
74101;DHT22;62462;52.530;21.682;2023-06-19T14:07:42;30.30;35.30
74101;DHT22;62462;52.530;21.682;2023-06-19T14:10:09;30.00;36.00
74101;DHT22;62462;52.530;21.682;2023-06-19T14:12:34;29.80;36.00
74101;DHT22;62462;52.530;21.682;2023-06-19T14:15:00;29.50;37.40
74101;DHT22;62462;52.530;21.682;2023-06-19T14:17:26;29.50;37.00
74101;DHT22;62462;52.530;21.682;2023-06-19T14:19:53;29.50;35.30
74101;DHT22;62462;52.530;21.682;2023-06-19T14:22:21;29.30;36.40
74101;DHT22;62462;52.530;21.682;2023-06-19T14:24:46;29.10;37.80
74101;DHT22;62462;52.530;21.682;2023-06-19T14:27:12;29.10;40.50
74101;DHT22;62462;52.530;21.682;2023-06-19T14:29:39;29.30;39.80
74101;DHT22;62462;52.530;21.682;2023-06-19T14:32:05;29.50;37.60
74101;DHT22;62462;52.530;21.682;2023-06-19T14:34:31;29.70;38.30
74101;DHT22;62462;52.530;21.682;2023-06-19T14:36:56;29.60;37.30
74101;DHT22;62462;52.530;21.682;2023-06-19T14:39:22;29.40;38.10
74101;DHT22;62462;52.530;21.682;2023-06-19T14:41:48;29.30;38.70
74101;DHT22;62462;52.530;21.682;2023-06-19T14:44:14;29.20;38.70
74101;DHT22;62462;52.530;21.682;2023-06-19T14:46:40;29.00;39.10
74101;DHT22;62462;52.530;21.682;2023-06-19T14:49:07;28.90;40.40
74101;DHT22;62462;52.530;21.682;2023-06-19T14:51:33;28.70;40.50
74101;DHT22;62462;52.530;21.682;2023-06-19T14:53:59;28.60;41.00
74101;DHT22;62462;52.530;21.682;2023-06-19T14:56:25;28.50;41.30
74101;DHT22;62462;52.530;21.682;2023-06-19T14:58:51;28.40;42.40
74101;DHT22;62462;52.530;21.682;2023-06-19T15:01:17;28.40;42.60
74101;DHT22;62462;52.530;21.682;2023-06-19T15:03:43;28.30;43.60
74101;DHT22;62462;52.530;21.682;2023-06-19T15:06:09;28.20;44.00
74101;DHT22;62462;52.530;21.682;2023-06-19T15:08:35;28.20;44.30
74101;DHT22;62462;52.530;21.682;2023-06-19T15:11:03;28.20;44.70
74101;DHT22;62462;52.530;21.682;2023-06-19T15:13:30;28.30;44.50
74101;DHT22;62462;52.530;21.682;2023-06-19T15:15:57;28.40;44.40
74101;DHT22;62462;52.530;21.682;2023-06-19T15:18:25;28.70;44.30
74101;DHT22;62462;52.530;21.682;2023-06-19T15:20:51;29.00;42.30
74101;DHT22;62462;52.530;21.682;2023-06-19T15:23:17;29.30;41.70